createdAt,value
2023-03-18T00:01:03.864Z,3.03
2023-03-18T00:03:31.741Z,3.90
2023-03-18T00:06:10.236Z,4.00
2023-03-18T00:08:39.235Z,3.43
2023-03-18T00:11:07.830Z,3.20
2023-03-18T00:13:35.721Z,3.20
2023-03-18T00:16:04.587Z,2.83
2023-03-18T00:18:34.193Z,3.30
2023-03-18T00:21:03.720Z,3.30
2023-03-18T00:23:34.193Z,2.63
2023-03-18T00:26:02.496Z,3.10
2023-03-18T00:28:31.307Z,3.73
2023-03-18T00:31:04.959Z,3.60
2023-03-18T00:33:32.632Z,3.73
2023-03-18T00:36:00.267Z,2.77
2023-03-18T00:38:29.512Z,2.83
2023-03-18T00:41:11.326Z,3.60
2023-03-18T00:43:47.070Z,3.57
2023-03-18T00:46:16.250Z,2.63
2023-03-18T00:48:44.384Z,2.60
2023-03-18T00:51:14.158Z,4.03
2023-03-18T00:53:42.578Z,2.70
2023-03-18T00:56:11.999Z,2.90
2023-03-18T00:58:41.146Z,3.67
2023-03-18T01:01:10.160Z,3.50
2023-03-18T01:03:38.011Z,3.50
2023-03-18T01:06:06.193Z,3.63
2023-03-18T01:08:33.920Z,3.20
2023-03-18T01:11:01.596Z,2.50
2023-03-18T01:13:31.147Z,4.23
2023-03-18T01:15:58.855Z,3.20
2023-03-18T01:18:26.548Z,3.53
2023-03-18T01:20:55.536Z,4.00
2023-03-18T01:23:24.126Z,3.03
2023-03-18T01:25:52.027Z,3.80
2023-03-18T01:28:23.301Z,3.20
2023-03-18T01:30:53.119Z,3.27
2023-03-18T01:33:23.260Z,2.70
2023-03-18T01:35:56.534Z,3.07
2023-03-18T01:38:30.172Z,3.10
2023-03-18T01:41:02.487Z,3.00
2023-03-18T01:43:33.819Z,2.90
2023-03-18T01:46:39.035Z,3.57
2023-03-18T01:49:12.495Z,2.87
2023-03-18T01:51:41.812Z,3.27
2023-03-18T01:54:12.337Z,3.90
2023-03-18T01:56:42.371Z,3.47
2023-03-18T01:59:12.176Z,3.83
2023-03-18T02:01:45.098Z,4.10
2023-03-18T02:06:43.636Z,3.33
2023-03-18T02:09:13.119Z,3.27
2023-03-18T02:11:46.561Z,3.10
2023-03-18T02:14:19.239Z,4.47
2023-03-18T02:16:53.379Z,3.33
2023-03-18T02:19:33.739Z,3.20
2023-03-18T02:22:12.690Z,3.80
2023-03-18T02:24:47.603Z,3.37
2023-03-18T02:27:20.701Z,3.50
2023-03-18T02:29:49.630Z,3.90
2023-03-18T02:32:22.063Z,2.93
2023-03-18T02:34:50.364Z,3.30
2023-03-18T02:37:18.161Z,4.03
2023-03-18T02:39:46.155Z,4.07
2023-03-18T02:42:15.476Z,3.60
2023-03-18T02:44:51.121Z,4.97
2023-03-18T02:47:42.116Z,4.40
2023-03-18T02:50:10.788Z,4.30
2023-03-18T02:52:38.844Z,4.43
2023-03-18T02:55:08.070Z,3.07
2023-03-18T02:57:37.178Z,4.87
2023-03-18T03:00:08.454Z,3.63
2023-03-18T03:02:37.007Z,4.67
2023-03-18T03:05:05.235Z,3.80
2023-03-18T03:07:33.500Z,3.27
2023-03-18T03:10:03.155Z,3.83
2023-03-18T03:12:31.096Z,4.13
2023-03-18T03:15:00.990Z,4.27
2023-03-18T03:17:33.698Z,4.00
2023-03-18T03:20:01.590Z,3.90
2023-03-18T03:22:30.109Z,4.23
2023-03-18T03:24:58.187Z,3.93
2023-03-18T03:27:26.127Z,3.60
2023-03-18T03:29:55.354Z,3.90
2023-03-18T03:32:23.788Z,4.43
2023-03-18T03:34:52.825Z,3.33
2023-03-18T03:37:20.502Z,4.00
2023-03-18T03:39:48.968Z,4.40
2023-03-18T03:42:16.603Z,4.57
2023-03-18T03:44:44.246Z,4.30
2023-03-18T03:47:12.214Z,4.60
2023-03-18T03:49:40.249Z,3.93
2023-03-18T03:52:09.432Z,4.10
2023-03-18T03:54:41.499Z,5.00
2023-03-18T03:57:09.778Z,5.90
2023-03-18T03:59:37.570Z,5.13
2023-03-18T04:02:14.308Z,4.80
2023-03-18T04:04:42.480Z,4.10
2023-03-18T04:07:19.368Z,5.83
2023-03-18T04:09:47.414Z,4.47
2023-03-18T04:12:18.131Z,5.50
2023-03-18T04:14:51.837Z,5.80
2023-03-18T04:17:19.923Z,5.20
2023-03-18T04:19:47.748Z,4.67
2023-03-18T04:22:16.429Z,5.20
2023-03-18T04:24:46.781Z,5.17
2023-03-18T04:27:14.446Z,5.50
2023-03-18T04:29:42.219Z,5.67
2023-03-18T04:32:10.254Z,4.93
2023-03-18T04:34:39.163Z,5.77
2023-03-18T04:37:08.905Z,6.30
2023-03-18T04:39:38.227Z,5.40
2023-03-18T04:42:07.893Z,5.80
2023-03-18T04:44:35.790Z,6.90
2023-03-18T04:47:03.476Z,6.43
2023-03-18T04:49:31.601Z,5.72
2023-03-18T04:52:04.065Z,5.00
2023-03-18T04:54:33.234Z,5.72
2023-03-18T04:57:05.776Z,5.83
2023-03-18T04:59:38.636Z,6.30
2023-03-18T05:02:08.578Z,7.07
2023-03-18T05:04:39.103Z,5.73
2023-03-18T05:07:08.516Z,6.20
2023-03-18T05:09:39.765Z,6.10
2023-03-18T05:12:14.753Z,6.37
2023-03-18T05:14:44.398Z,6.00
2023-03-18T05:17:15.731Z,6.10
2023-03-18T05:19:48.640Z,5.57
2023-03-18T05:22:21.926Z,5.97
2023-03-18T05:24:54.702Z,6.00
2023-03-18T05:27:24.758Z,5.90
2023-03-18T05:30:01.235Z,6.60
2023-03-18T05:32:45.293Z,5.93
2023-03-18T05:35:14.149Z,5.90
2023-03-18T05:37:48.939Z,5.73
2023-03-18T05:40:17.766Z,6.10
2023-03-18T05:42:58.470Z,5.63
2023-03-18T05:45:40.064Z,5.90
2023-03-18T05:48:10.577Z,5.40
2023-03-18T05:50:45.525Z,5.80
2023-03-18T05:53:17.928Z,5.27
2023-03-18T05:55:48.689Z,5.93
2023-03-18T05:58:18.298Z,6.27
2023-03-18T06:00:50.472Z,4.80
2023-03-18T06:03:18.435Z,5.90
2023-03-18T06:05:47.610Z,5.37
2023-03-18T06:08:15.481Z,6.33
2023-03-18T06:10:43.115Z,5.20
2023-03-18T06:13:12.154Z,6.43
2023-03-18T06:15:39.852Z,6.43
2023-03-18T06:18:09.362Z,6.20
2023-03-18T06:20:36.979Z,6.50
2023-03-18T06:23:05.211Z,7.20
2023-03-18T06:25:33.831Z,5.43
2023-03-18T06:28:02.878Z,6.23
2023-03-18T06:30:32.230Z,5.43
2023-03-18T06:33:00.321Z,6.57
2023-03-18T06:35:31.550Z,6.20
2023-03-18T06:37:59.465Z,6.63
2023-03-18T06:40:27.861Z,6.10
2023-03-18T06:42:56.900Z,5.67
2023-03-18T06:45:30.881Z,6.30
2023-03-18T06:48:04.680Z,6.00
2023-03-18T06:50:36.981Z,6.10
2023-03-18T06:53:05.430Z,5.73
2023-03-18T06:55:35.613Z,7.33
2023-03-18T06:58:05.402Z,6.00
2023-03-18T07:00:47.651Z,5.43
2023-03-18T07:03:23.258Z,6.70
2023-03-18T07:05:54.362Z,6.00
2023-03-18T07:08:22.020Z,4.90
2023-03-18T07:10:53.084Z,6.40
2023-03-18T07:13:21.338Z,6.90
2023-03-18T07:15:49.035Z,6.23
2023-03-18T07:18:16.980Z,6.17
2023-03-18T07:20:47.279Z,4.73
2023-03-18T07:23:16.914Z,6.30
2023-03-18T07:25:45.140Z,5.20
2023-03-18T07:28:12.928Z,4.80
2023-03-18T07:30:40.673Z,5.23
2023-03-18T07:33:08.754Z,5.23
2023-03-18T07:35:40.968Z,5.43
2023-03-18T07:38:09.413Z,5.53
2023-03-18T07:40:38.701Z,4.93
2023-03-18T07:43:06.444Z,5.40
2023-03-18T07:45:34.625Z,5.20
2023-03-18T07:48:02.447Z,4.63
2023-03-18T07:50:30.301Z,5.00
2023-03-18T07:52:58.164Z,5.40
2023-03-18T07:55:25.786Z,4.90
2023-03-18T07:57:54.781Z,4.63
2023-03-18T08:00:23.694Z,4.20
2023-03-18T08:02:51.338Z,4.40
2023-03-18T08:05:20.003Z,3.30
2023-03-18T08:07:48.450Z,3.90
2023-03-18T08:10:16.081Z,3.57
2023-03-18T08:12:52.641Z,3.13
2023-03-18T08:15:23.569Z,3.27
2023-03-18T08:17:52.424Z,3.03
2023-03-18T08:20:20.348Z,4.17
2023-03-18T08:22:48.355Z,3.53
2023-03-18T08:25:16.325Z,3.83
2023-03-18T08:27:43.977Z,3.50
2023-03-18T08:30:13.665Z,4.10
2023-03-18T08:32:43.023Z,4.07
2023-03-18T08:35:11.484Z,3.70
2023-03-18T08:37:39.506Z,3.40
2023-03-18T08:40:09.757Z,3.93
2023-03-18T08:42:37.481Z,4.00
2023-03-18T08:45:05.875Z,3.40
2023-03-18T08:47:33.444Z,3.70
2023-03-18T08:50:02.881Z,3.73
2023-03-18T08:52:30.793Z,3.10
2023-03-18T08:54:58.373Z,4.53
2023-03-18T08:57:27.724Z,3.60
2023-03-18T08:59:55.402Z,3.57
2023-03-18T09:02:23.534Z,3.20
2023-03-18T09:04:51.296Z,3.93
2023-03-18T09:07:20.231Z,3.10
2023-03-18T09:09:47.810Z,3.20
2023-03-18T09:12:15.685Z,3.10
2023-03-18T09:14:43.881Z,3.20
2023-03-18T09:17:11.669Z,3.70
2023-03-18T09:19:39.306Z,3.00
2023-03-18T09:22:07.109Z,3.83
2023-03-18T09:24:36.108Z,3.33
2023-03-18T09:27:03.759Z,3.17
2023-03-18T09:29:31.915Z,3.40
2023-03-18T09:32:00.524Z,3.30
2023-03-18T09:34:28.345Z,4.17
2023-03-18T09:36:58.064Z,3.73
2023-03-18T09:39:25.916Z,3.90
2023-03-18T09:42:07.609Z,3.50
2023-03-18T09:44:37.292Z,3.20
2023-03-18T09:47:29.174Z,3.70
2023-03-18T09:50:11.716Z,3.60
2023-03-18T09:52:45.134Z,4.30
2023-03-18T09:55:22.269Z,2.77
2023-03-18T09:57:55.454Z,3.77
2023-03-18T10:00:28.968Z,3.83
2023-03-18T10:03:01.655Z,3.87
2023-03-18T10:05:33.908Z,3.50
2023-03-18T10:08:09.029Z,3.00
2023-03-18T10:10:40.047Z,2.70
2023-03-18T10:13:18.287Z,3.07
2023-03-18T10:15:50.282Z,3.53
2023-03-18T10:18:26.423Z,2.10
2023-03-18T10:21:07.850Z,1.90
2023-03-18T10:23:49.498Z,2.30
2023-03-18T10:26:21.545Z,2.53
2023-03-18T10:29:01.464Z,2.80
2023-03-18T10:31:43.055Z,2.03
2023-03-18T10:34:16.313Z,2.33
2023-03-18T10:36:51.260Z,2.90
2023-03-18T10:39:21.630Z,2.43
2023-03-18T10:41:50.907Z,2.17
2023-03-18T10:44:26.826Z,2.67
2023-03-18T10:46:59.841Z,3.70
2023-03-18T10:49:32.708Z,2.60
2023-03-18T10:52:05.807Z,2.50
2023-03-18T10:54:38.753Z,2.83
2023-03-18T10:57:06.637Z,2.50
2023-03-18T10:59:35.690Z,2.83
2023-03-18T11:02:06.319Z,2.30
2023-03-18T11:04:42.326Z,3.10
2023-03-18T11:07:16.376Z,2.40
2023-03-18T11:09:44.526Z,2.60
2023-03-18T11:12:19.371Z,1.90
2023-03-18T11:14:50.892Z,2.10
2023-03-18T11:17:26.176Z,2.60
2023-03-18T11:20:05.753Z,3.07
2023-03-18T11:22:33.935Z,2.30
2023-03-18T11:25:13.964Z,1.97
2023-03-18T11:27:44.005Z,2.23
2023-03-18T11:30:40.588Z,2.20
2023-03-18T11:33:15.599Z,1.80
2023-03-18T11:35:47.191Z,1.90
2023-03-18T11:38:16.928Z,1.70
2023-03-18T11:40:44.743Z,2.30
2023-03-18T11:43:18.645Z,2.23
2023-03-18T11:45:58.530Z,1.83
2023-03-18T11:48:34.062Z,1.70
2023-03-18T11:51:24.594Z,2.13
2023-03-18T11:54:06.660Z,2.33
2023-03-18T11:56:36.053Z,1.97
2023-03-18T11:59:24.116Z,2.13
2023-03-18T12:02:04.720Z,1.57
2023-03-18T12:04:47.177Z,1.90
2023-03-18T12:07:31.235Z,1.90
2023-03-18T12:10:08.640Z,2.00
2023-03-18T12:12:50.065Z,1.97
2023-03-18T12:15:27.083Z,2.67
2023-03-18T12:18:12.918Z,2.07
2023-03-18T12:20:50.471Z,1.70
2023-03-18T12:23:37.627Z,2.03
2023-03-18T12:26:09.458Z,1.50
2023-03-18T12:28:48.262Z,1.97
2023-03-18T12:31:59.326Z,1.80
2023-03-18T12:34:41.489Z,2.00
2023-03-18T12:37:25.554Z,2.03
2023-03-18T12:40:06.266Z,2.00
2023-03-18T12:42:48.349Z,1.80
2023-03-18T12:45:20.554Z,1.60
2023-03-18T12:47:51.712Z,2.00
2023-03-18T12:50:32.302Z,1.40
2023-03-18T12:53:04.177Z,1.80
2023-03-18T12:55:37.513Z,1.93
2023-03-18T12:58:08.709Z,1.73
2023-03-18T13:00:40.945Z,2.20
2023-03-18T13:03:21.732Z,1.57
2023-03-18T13:05:53.504Z,1.70
2023-03-18T13:08:55.578Z,1.80
2023-03-18T13:11:56.622Z,1.90
2023-03-18T13:14:30.767Z,2.00
2023-03-18T13:17:00.306Z,1.87
2023-03-18T13:19:28.185Z,1.73
2023-03-18T13:22:13.116Z,2.10
2023-03-18T13:24:59.798Z,1.70
2023-03-18T13:27:41.666Z,1.93
2023-03-18T13:30:19.439Z,2.17
2023-03-18T13:33:13.933Z,1.60
2023-03-18T13:36:16.913Z,1.83
2023-03-18T13:39:06.406Z,1.63
2023-03-18T13:41:51.048Z,1.60
2023-03-18T13:44:23.611Z,1.63
2023-03-18T13:46:59.710Z,1.83
2023-03-18T13:49:30.602Z,1.80
2023-03-18T13:52:00.957Z,1.70
2023-03-18T13:54:35.811Z,1.70
2023-03-18T13:57:33.720Z,1.73
2023-03-18T14:00:25.260Z,1.60
2023-03-18T14:03:16.294Z,1.57
2023-03-18T14:05:45.289Z,1.70
2023-03-18T14:08:34.560Z,2.00
2023-03-18T14:11:45.324Z,2.60
2023-03-18T14:14:54.680Z,1.50
2023-03-18T14:17:27.922Z,1.70
2023-03-18T14:19:56.035Z,1.27
2023-03-18T14:22:29.173Z,1.70
2023-03-18T14:25:40.777Z,1.30
2023-03-18T14:28:20.873Z,1.83
2023-03-18T14:30:55.653Z,1.23
2023-03-18T14:33:34.127Z,1.40
2023-03-18T14:36:06.805Z,1.80
2023-03-18T14:38:42.064Z,1.40
2023-03-18T14:41:18.417Z,1.70
2023-03-18T14:43:55.277Z,2.13
2023-03-18T14:46:31.303Z,1.70
2023-03-18T14:48:58.922Z,2.33
2023-03-18T14:51:28.955Z,1.80
2023-03-18T14:54:02.650Z,1.77
2023-03-18T14:56:31.946Z,1.63
2023-03-18T14:59:02.156Z,1.97
2023-03-18T15:01:36.451Z,1.90
2023-03-18T15:04:05.253Z,2.00
2023-03-18T15:06:33.345Z,2.80
2023-03-18T15:09:04.539Z,1.57
2023-03-18T15:11:38.206Z,1.80
2023-03-18T15:14:13.849Z,2.13
2023-03-18T15:16:41.503Z,1.77
2023-03-18T15:19:12.552Z,2.60
2023-03-18T15:21:40.457Z,2.10
2023-03-18T15:24:09.363Z,1.90
2023-03-18T15:26:38.776Z,2.00
2023-03-18T15:29:26.252Z,2.27
2023-03-18T15:31:53.955Z,2.47
2023-03-18T15:34:23.151Z,2.07
2023-03-18T15:36:54.725Z,2.70
2023-03-18T15:39:30.615Z,2.60
2023-03-18T15:41:59.700Z,2.77
2023-03-18T15:44:31.705Z,2.33
2023-03-18T15:47:08.120Z,2.60
2023-03-18T15:49:49.853Z,3.80
2023-03-18T15:52:18.496Z,2.80
2023-03-18T15:54:49.188Z,1.70
2023-03-18T15:57:29.143Z,2.47
2023-03-18T15:59:58.580Z,2.10
2023-03-18T16:02:26.361Z,2.27
2023-03-18T16:04:53.934Z,2.50
2023-03-18T16:07:23.098Z,2.60
2023-03-18T16:09:51.630Z,2.50
2023-03-18T16:12:21.752Z,2.20
2023-03-18T16:14:50.914Z,2.20
2023-03-18T16:17:22.274Z,2.33
2023-03-18T16:19:54.259Z,2.60
2023-03-18T16:22:22.367Z,1.90
2023-03-18T16:24:50.983Z,2.27
2023-03-18T16:27:29.233Z,2.90
2023-03-18T16:29:56.984Z,2.63
2023-03-18T16:32:26.155Z,2.83
2023-03-18T16:34:53.793Z,2.40
2023-03-18T16:37:25.614Z,2.20
2023-03-18T16:39:54.531Z,2.30
2023-03-18T16:42:23.667Z,2.43
2023-03-18T16:44:51.347Z,2.90
2023-03-18T16:47:22.639Z,2.50
2023-03-18T16:49:52.322Z,2.10
2023-03-18T16:52:20.064Z,2.40
2023-03-18T16:54:47.693Z,2.27
2023-03-18T16:57:18.436Z,2.50
2023-03-18T16:59:50.599Z,2.37
2023-03-18T17:02:30.926Z,2.53
2023-03-18T17:05:00.245Z,2.63
2023-03-18T17:07:29.369Z,2.83
2023-03-18T17:09:57.021Z,2.97
2023-03-18T17:12:26.157Z,3.03
2023-03-18T17:14:56.642Z,2.60
2023-03-18T17:17:30.373Z,3.00
2023-03-18T17:20:00.651Z,3.30
2023-03-18T17:22:30.594Z,2.90
2023-03-18T17:24:58.264Z,2.50
2023-03-18T17:27:29.700Z,3.07
2023-03-18T17:29:57.302Z,3.03
2023-03-18T17:32:25.956Z,2.80
2023-03-18T17:34:54.671Z,2.67
2023-03-18T17:37:24.417Z,3.77
2023-03-18T17:39:52.024Z,3.30
2023-03-18T17:42:30.802Z,3.97
2023-03-18T17:45:04.307Z,3.00
2023-03-18T17:47:32.569Z,3.47
2023-03-18T17:50:00.548Z,3.80
2023-03-18T17:52:30.427Z,3.27
2023-03-18T17:54:58.072Z,3.03
2023-03-18T17:57:27.037Z,3.20
2023-03-18T17:59:54.910Z,3.10
2023-03-18T18:02:22.673Z,3.50
2023-03-18T18:04:50.323Z,4.20
2023-03-18T18:07:19.543Z,3.20
2023-03-18T18:09:49.390Z,3.10
2023-03-18T18:12:22.837Z,3.30
2023-03-18T18:14:50.989Z,3.50
2023-03-18T18:17:19.103Z,4.40
2023-03-18T18:19:47.105Z,7.70
2023-03-18T18:22:18.708Z,4.70
2023-03-18T18:24:48.752Z,5.87
2023-03-18T18:27:16.800Z,4.67
2023-03-18T18:29:45.832Z,3.20
2023-03-18T18:32:15.474Z,2.83
2023-03-18T18:34:43.127Z,2.70
2023-03-18T18:37:10.830Z,3.20
2023-03-18T18:39:38.438Z,3.03
2023-03-18T18:42:08.682Z,3.63
2023-03-18T18:44:36.522Z,2.97
2023-03-18T18:47:04.312Z,3.63
2023-03-18T18:49:32.788Z,4.63
2023-03-18T18:52:01.451Z,4.83
2023-03-18T18:54:29.221Z,5.23
2023-03-18T18:56:57.389Z,5.20
2023-03-18T18:59:31.763Z,5.70
2023-03-18T19:02:00.604Z,5.80
2023-03-18T19:04:29.080Z,6.20
2023-03-18T19:06:56.837Z,6.40
2023-03-18T19:09:26.404Z,6.27
2023-03-18T19:11:56.032Z,6.80
2023-03-18T19:14:27.267Z,6.60
2023-03-18T19:16:58.238Z,6.53
2023-03-18T19:19:28.745Z,6.33
2023-03-18T19:21:57.264Z,6.40
2023-03-18T19:24:27.881Z,5.87
2023-03-18T19:26:57.331Z,6.17
2023-03-18T19:29:27.178Z,6.90
2023-03-18T19:31:55.557Z,6.50
2023-03-18T19:34:24.084Z,5.80
2023-03-18T19:36:55.823Z,6.10
2023-03-18T19:39:24.723Z,5.20
2023-03-18T19:41:52.455Z,5.47
2023-03-18T19:44:21.825Z,5.10
2023-03-18T19:46:53.909Z,6.17
2023-03-18T19:49:26.424Z,9.00
2023-03-18T19:51:55.272Z,9.43
2023-03-18T19:54:31.470Z,8.47
2023-03-18T19:57:01.298Z,4.80
2023-03-18T19:59:37.588Z,6.30
2023-03-18T20:02:19.722Z,5.63
2023-03-18T20:04:49.294Z,7.20
2023-03-18T20:07:18.766Z,6.90
2023-03-18T20:09:46.791Z,7.23
2023-03-18T20:12:22.645Z,6.20
2023-03-18T20:14:51.102Z,6.90
2023-03-18T20:17:30.114Z,7.13
2023-03-18T20:19:58.447Z,7.60
2023-03-18T20:22:29.319Z,6.60
2023-03-18T20:24:56.978Z,10.20
2023-03-18T20:27:24.790Z,7.73
2023-03-18T20:29:52.724Z,7.90
2023-03-18T20:32:20.392Z,7.00
2023-03-18T20:34:49.364Z,7.27
2023-03-18T20:37:23.606Z,5.70
2023-03-18T20:39:52.121Z,4.93
2023-03-18T20:42:20.043Z,5.77
2023-03-18T20:44:47.713Z,5.87
2023-03-18T20:47:15.649Z,6.63
2023-03-18T20:49:44.728Z,6.23
2023-03-18T20:52:23.930Z,6.00
2023-03-18T20:54:51.590Z,5.60
2023-03-18T20:57:19.756Z,5.90
2023-03-18T20:59:47.390Z,4.70
2023-03-18T21:02:29.679Z,4.23
2023-03-18T21:04:57.806Z,3.70
2023-03-18T21:07:27.914Z,4.60
2023-03-18T21:09:55.855Z,3.90
2023-03-18T21:12:23.738Z,4.60
2023-03-18T21:14:51.753Z,4.43
2023-03-18T21:17:20.331Z,4.20
2023-03-18T21:19:48.314Z,4.90
2023-03-18T21:22:21.351Z,5.30
2023-03-18T21:24:50.857Z,4.77
2023-03-18T21:27:20.933Z,4.57
2023-03-18T21:29:49.443Z,4.50
2023-03-18T21:32:22.880Z,4.53
2023-03-18T21:34:51.055Z,4.60
2023-03-18T21:37:20.313Z,5.23
2023-03-18T21:39:47.966Z,6.80
2023-03-18T21:42:23.848Z,4.67
2023-03-18T21:44:51.956Z,5.07
2023-03-18T21:47:21.594Z,5.70
2023-03-18T21:49:49.608Z,5.10
2023-03-18T21:52:20.225Z,4.60
2023-03-18T21:54:48.329Z,5.27
2023-03-18T21:57:17.837Z,6.63
2023-03-18T21:59:47.334Z,5.80
2023-03-18T22:02:29.021Z,5.60
2023-03-18T22:04:58.694Z,5.63
2023-03-18T22:07:26.949Z,5.37
2023-03-18T22:09:54.802Z,5.30
2023-03-18T22:12:25.268Z,5.40
2023-03-18T22:14:55.021Z,5.10
2023-03-18T22:17:25.384Z,4.20
2023-03-18T22:19:53.146Z,5.57
2023-03-18T22:22:22.396Z,5.50
2023-03-18T22:24:51.133Z,5.50
2023-03-18T22:27:21.621Z,4.70
2023-03-18T22:29:50.929Z,4.90
2023-03-18T22:32:31.791Z,4.40
2023-03-18T22:34:59.479Z,4.70
2023-03-18T22:37:27.487Z,3.80
2023-03-18T22:39:55.162Z,4.10
2023-03-18T22:42:25.224Z,3.40
2023-03-18T22:44:53.643Z,3.40
2023-03-18T22:47:22.988Z,3.83
2023-03-18T22:49:52.626Z,3.73
2023-03-18T22:52:23.190Z,3.17
2023-03-18T22:54:54.506Z,3.25
2023-03-18T22:57:24.661Z,3.20
2023-03-18T22:59:52.491Z,2.90
2023-03-18T23:02:22.709Z,3.13
2023-03-18T23:04:52.774Z,2.87
2023-03-18T23:07:29.817Z,3.53
2023-03-18T23:09:58.795Z,3.73
2023-03-18T23:12:28.412Z,3.40
2023-03-18T23:14:56.109Z,4.13
2023-03-18T23:17:25.340Z,3.50
2023-03-18T23:19:55.047Z,4.10
2023-03-18T23:22:26.002Z,4.43
2023-03-18T23:24:53.903Z,4.40
2023-03-18T23:27:22.137Z,8.03
2023-03-18T23:29:50.128Z,6.90
2023-03-18T23:32:19.365Z,5.40
2023-03-18T23:34:47.918Z,4.87
2023-03-18T23:37:17.445Z,4.00
2023-03-18T23:39:46.316Z,2.87
2023-03-18T23:42:14.841Z,3.37
2023-03-18T23:44:42.831Z,3.57
2023-03-18T23:47:12.321Z,3.67
2023-03-18T23:49:40.795Z,4.10
2023-03-18T23:52:11.282Z,3.33
2023-03-18T23:54:40.814Z,3.13
2023-03-18T23:57:11.194Z,3.60
2023-03-18T23:59:39.311Z,3.10
